Time;durP1;ratioP1;P1;durP2;ratioP2;P2;SDS_P1;SDS_P2;PMS_P1;PMS_P2;Temp;Humidity;BMP_temperature;BMP_pressure;BME280_temperature;BME280_humidity;BME280_pressure;Samples;Min_cycle;Max_cycle;Signal;HPM_P1;HPM_P2
2022/06/25 00:01:22;;;;;;;15.50;6.80;;;;;;;20.09;51.08;98317.42;108025;1290;22430;-86
2022/06/25 00:07:54;;;;;;;14.40;8.50;;;;;;;19.99;51.53;98316.08;108215;1290;23061;-86
2022/06/25 00:10:34;;;;;;;16.30;9.30;;;;;;;19.92;51.70;98316.87;108216;1288;22425;-87
2022/06/25 00:13:43;;;;;;;15.20;8.30;;;;;;;19.83;51.94;98309.13;108212;1290;23142;-86
2022/06/25 00:20:16;;;;;;;18.50;10.70;;;;;;;19.50;52.32;98297.83;107522;1294;22992;-86
2022/06/25 00:23:15;;;;;;;16.50;9.40;;;;;;;19.47;52.46;98297.63;107819;1290;23111;-86
2022/06/25 00:25:51;;;;;;;13.20;8.00;;;;;;;19.54;52.65;98293.75;108012;1290;22391;-86
2022/06/25 00:28:19;;;;;;;13.10;8.00;;;;;;;19.61;52.78;98296.09;107957;1290;22412;-84
2022/06/25 00:30:46;;;;;;;11.60;6.40;;;;;;;19.57;52.71;98290.52;108071;1290;23284;-84
2022/06/25 00:33:18;;;;;;;11.30;6.00;;;;;;;19.45;52.82;98283.79;108046;1290;22374;-84
2022/06/25 00:35:48;;;;;;;10.80;5.10;;;;;;;19.38;52.73;98286.44;108106;1290;22951;-84
2022/06/25 00:38:25;;;;;;;10.80;4.90;;;;;;;19.39;53.10;98289.30;108066;1289;22373;-84
2022/06/25 00:40:57;;;;;;;8.90;4.60;;;;;;;19.41;52.97;98283.54;108041;1290;22922;-84
2022/06/25 00:43:30;;;;;;;9.50;4.50;;;;;;;19.33;53.03;98282.83;108062;1290;22406;-83
2022/06/25 00:46:02;;;;;;;8.40;4.50;;;;;;;19.25;53.34;98285.14;108083;1289;22488;-84
2022/06/25 00:48:29;;;;;;;9.20;4.10;;;;;;;19.16;53.52;98288.01;108074;1290;22259;-84
2022/06/25 00:51:01;;;;;;;10.40;4.30;;;;;;;19.12;53.65;98286.70;108242;1288;22398;-84
2022/06/25 00:53:34;;;;;;;10.00;4.40;;;;;;;19.14;53.74;98279.39;108036;1290;22248;-84
2022/06/25 00:56:09;;;;;;;9.40;3.70;;;;;;;19.19;53.84;98271.93;108254;1284;22404;-84
2022/06/25 00:58:42;;;;;;;10.70;3.70;;;;;;;19.23;53.90;98266.96;108649;1285;22214;-84
2022/06/25 01:01:14;;;;;;;10.50;3.90;;;;;;;19.30;53.96;98266.82;108667;1284;22639;-83
2022/06/25 01:03:42;;;;;;;9.30;4.50;;;;;;;19.35;53.81;98268.22;108658;1284;22775;-84
2022/06/25 01:06:10;;;;;;;10.90;4.80;;;;;;;19.34;54.02;98270.99;108637;1283;22420;-84
2022/06/25 01:08:37;;;;;;;9.80;4.50;;;;;;;19.30;54.08;98273.66;108668;1284;22303;-84
2022/06/25 01:11:10;;;;;;;11.70;4.90;;;;;;;19.34;54.14;98272.50;108657;1284;22367;-84
2022/06/25 01:13:38;;;;;;;10.30;5.30;;;;;;;19.28;54.24;98274.98;108729;1283;22241;-84
2022/06/25 01:16:06;;;;;;;16.10;5.20;;;;;;;19.18;54.33;98275.70;108665;1284;22336;-84
2022/06/25 01:18:36;;;;;;;14.70;6.00;;;;;;;19.09;54.60;98277.06;108652;1284;22289;-84
2022/06/25 01:21:03;;;;;;;14.10;6.00;;;;;;;19.03;54.53;98280.05;108730;1284;22192;-84
2022/06/25 01:23:37;;;;;;;11.00;6.00;;;;;;;19.01;54.71;98287.84;108582;1284;22296;-84
2022/06/25 01:26:04;;;;;;;13.90;6.80;;;;;;;19.02;54.85;98289.16;108666;1284;22479;-83
2022/06/25 01:28:34;;;;;;;11.20;5.70;;;;;;;18.99;54.95;98283.15;108622;1284;22323;-84
2022/06/25 01:31:04;;;;;;;14.60;6.00;;;;;;;18.95;55.02;98284.38;108652;1284;22370;-84
2022/06/25 01:33:31;;;;;;;13.90;6.50;;;;;;;19.01;55.47;98284.36;108624;1284;22970;-84
2022/06/25 01:36:04;;;;;;;11.10;5.70;;;;;;;19.05;55.30;98285.53;108608;1285;22803;-84
2022/06/25 01:38:39;;;;;;;11.60;4.60;;;;;;;19.01;55.45;98277.90;108636;1285;22903;-85
2022/06/25 01:41:06;;;;;;;8.70;4.60;;;;;;;18.96;55.36;98278.61;108573;1284;22331;-84
2022/06/25 01:43:39;;;;;;;11.10;4.90;;;;;;;19.00;55.68;98288.25;108436;1283;22140;-84
2022/06/25 01:46:10;;;;;;;10.10;4.30;;;;;;;19.13;55.78;98301.26;108359;1285;22452;-85
2022/06/25 01:48:40;;;;;;;9.20;4.30;;;;;;;19.23;55.70;98304.70;108558;1284;22183;-84
2022/06/25 01:51:09;;;;;;;9.90;4.20;;;;;;;19.32;55.71;98302.96;108417;1284;22566;-84
2022/06/25 01:53:37;;;;;;;8.40;4.20;;;;;;;19.41;55.77;98304.98;108695;1284;22353;-85
2022/06/25 01:56:09;;;;;;;9.90;3.90;;;;;;;19.48;55.63;98313.78;108580;1285;22303;-85
2022/06/25 01:58:39;;;;;;;9.60;3.80;;;;;;;19.52;55.58;98318.35;108574;1285;22373;-85
2022/06/25 02:01:11;;;;;;;9.70;3.80;;;;;;;19.53;55.54;98324.11;108617;1285;22159;-85
2022/06/25 02:03:41;;;;;;;8.70;3.60;;;;;;;19.53;55.53;98320.36;108445;1284;22415;-85
2022/06/25 02:06:13;;;;;;;6.80;3.50;;;;;;;19.51;55.79;98327.46;108552;1287;22020;-84
2022/06/25 02:08:42;;;;;;;8.50;3.90;;;;;;;19.45;55.70;98333.41;108603;1284;22149;-85
2022/06/25 02:11:13;;;;;;;7.80;3.50;;;;;;;19.48;55.90;98343.94;108596;1284;22318;-85
2022/06/25 02:13:41;;;;;;;7.10;3.70;;;;;;;19.51;56.01;98343.74;108685;1284;22401;-84
2022/06/25 02:16:10;;;;;;;7.70;3.40;;;;;;;19.54;56.03;98347.67;108609;1284;23228;-85
2022/06/25 02:18:40;;;;;;;7.30;3.30;;;;;;;19.55;56.19;98347.16;108546;1285;22431;-85
2022/06/25 02:21:10;;;;;;;7.30;3.20;;;;;;;19.55;55.90;98340.56;108591;1285;22612;-85
2022/06/25 02:23:38;;;;;;;8.90;3.50;;;;;;;19.52;56.13;98358.80;108527;1287;22411;-85
2022/06/25 02:26:08;;;;;;;8.50;3.70;;;;;;;19.51;56.10;98360.89;108574;1286;22377;-85
2022/06/25 02:28:38;;;;;;;8.10;3.50;;;;;;;19.49;56.37;98358.73;108626;1285;22313;-85
2022/06/25 02:31:07;;;;;;;8.00;3.60;;;;;;;19.50;56.33;98360.10;108608;1285;22335;-85
2022/06/25 02:33:37;;;;;;;8.20;3.70;;;;;;;19.49;56.19;98363.05;108595;1285;22331;-85
2022/06/25 02:36:06;;;;;;;8.80;4.00;;;;;;;19.53;56.29;98369.95;108599;1285;22410;-85
2022/06/25 02:38:37;;;;;;;7.50;3.20;;;;;;;19.57;56.26;98372.05;108617;1285;22888;-84
2022/06/25 02:41:07;;;;;;;8.80;3.40;;;;;;;19.61;56.43;98374.30;108591;1285;22527;-85
2022/06/25 02:43:38;;;;;;;8.00;3.50;;;;;;;19.63;56.31;98374.08;108596;1285;22327;-85
2022/06/25 02:46:17;;;;;;;10.40;3.40;;;;;;;19.69;56.36;98375.11;108712;1283;22432;-85
2022/06/25 02:48:49;;;;;;;8.50;3.50;;;;;;;19.67;56.39;98376.61;108598;1284;22371;-85
2022/06/25 02:51:18;;;;;;;8.00;3.50;;;;;;;19.63;56.38;98379.23;108594;1285;23034;-86
2022/06/25 02:53:47;;;;;;;8.10;3.80;;;;;;;19.57;56.47;98376.98;108721;1284;22460;-85
2022/06/25 03:03:42;;;;;;;7.80;3.20;;;;;;;19.66;56.65;98402.77;103345;1308;545075;-87
2022/06/25 03:06:16;;;;;;;7.60;3.30;;;;;;;19.65;56.49;98401.42;105530;1284;22544;-88
2022/06/25 03:08:46;;;;;;;7.30;3.40;;;;;;;19.65;56.72;98401.79;105339;1286;24429;-87
2022/06/25 03:11:14;;;;;;;7.20;3.70;;;;;;;19.63;56.84;98403.30;105292;1286;25425;-87
2022/06/25 03:13:41;;;;;;;7.30;3.10;;;;;;;19.59;56.85;98402.16;105277;1286;22826;-88
2022/06/25 03:16:16;;;;;;;7.50;3.70;;;;;;;19.54;56.88;98402.55;104686;1284;5342605;-86
2022/06/25 03:18:49;;;;;;;9.40;3.90;;;;;;;19.49;56.81;98407.55;105436;1283;22649;-87
2022/06/25 03:21:27;;;;;;;7.40;3.70;;;;;;;19.45;57.02;98409.14;106571;1273;22866;-87
2022/06/25 03:24:10;;;;;;;6.60;3.30;;;;;;;19.45;57.11;98410.09;106394;1271;22665;-90
2022/06/25 03:26:43;;;;;;;8.70;3.10;;;;;;;19.45;56.99;98408.67;106133;1273;24248;-87
2022/06/25 03:29:21;;;;;;;8.90;3.30;;;;;;;19.47;57.21;98406.16;106185;1271;22547;-87
2022/06/25 03:31:49;;;;;;;8.10;3.40;;;;;;;19.49;57.46;98415.79;106480;1271;22547;-86
2022/06/25 03:34:53;;;;;;;8.40;3.30;;;;;;;19.49;57.41;98418.91;105947;1280;24217;-87
2022/06/25 03:37:28;;;;;;;9.90;3.50;;;;;;;19.48;57.43;98429.62;106378;1271;22916;-87
2022/06/25 03:40:09;;;;;;;9.30;3.10;;;;;;;19.44;57.43;98425.38;106431;1272;22557;-87
2022/06/25 03:42:49;;;;;;;7.30;3.60;;;;;;;19.43;57.85;98426.27;106448;1271;22576;-90
2022/06/25 03:45:22;;;;;;;10.10;3.60;;;;;;;19.42;57.78;98421.01;106292;1271;25239;-89
2022/06/25 03:47:54;;;;;;;7.30;3.50;;;;;;;19.42;57.89;98422.93;106368;1271;23064;-87
2022/06/25 03:50:29;;;;;;;6.60;3.20;;;;;;;19.44;57.99;98421.99;106427;1272;22531;-86
2022/06/25 03:53:21;;;;;;;7.80;2.90;;;;;;;19.47;57.94;98420.73;106379;1273;25336;-87
2022/06/25 03:55:49;;;;;;;7.30;2.40;;;;;;;19.48;58.00;98421.70;106364;1272;23902;-87
2022/06/25 03:58:21;;;;;;;7.30;3.00;;;;;;;19.49;58.14;98427.05;106183;1271;24269;-86
2022/06/25 04:01:03;;;;;;;6.30;2.80;;;;;;;19.49;58.17;98424.63;106343;1273;25303;-87
2022/06/25 04:03:41;;;;;;;6.90;2.70;;;;;;;19.51;58.29;98426.77;106266;1274;22691;-87
2022/06/25 04:06:21;;;;;;;7.80;2.70;;;;;;;19.51;58.36;98428.48;106438;1274;23876;-87
2022/06/25 04:09:06;;;;;;;7.70;2.80;;;;;;;19.52;58.35;98432.58;106401;1271;22528;-88
2022/06/25 04:11:42;;;;;;;6.80;2.40;;;;;;;19.53;58.33;98431.38;106139;1271;22543;-89
2022/06/25 04:14:14;;;;;;;8.10;2.50;;;;;;;19.54;58.29;98430.38;106478;1271;22525;-89
2022/06/25 04:16:42;;;;;;;8.30;2.50;;;;;;;19.56;58.56;98426.90;106554;1271;25356;-87
2022/06/25 04:19:15;;;;;;;6.50;2.30;;;;;;;19.59;58.47;98430.19;106577;1271;22544;-87
2022/06/25 04:21:49;;;;;;;5.70;2.50;;;;;;;19.62;58.60;98428.13;106337;1271;22538;-88
2022/06/25 04:24:21;;;;;;;5.50;2.40;;;;;;;19.63;58.33;98429.27;106493;1271;25293;-86
2022/06/25 04:26:51;;;;;;;6.80;2.50;;;;;;;19.63;58.50;98433.30;106450;1271;22532;-88
2022/06/25 04:29:23;;;;;;;6.60;2.40;;;;;;;19.61;58.58;98433.48;106102;1274;22664;-88
2022/06/25 04:32:45;;;;;;;6.50;2.40;;;;;;;19.58;58.61;98432.89;106304;1271;22531;-89
2022/06/25 04:35:46;;;;;;;6.40;2.60;;;;;;;19.55;58.54;98426.98;106357;1274;24368;-87
2022/06/25 04:38:43;;;;;;;7.30;2.10;;;;;;;19.55;58.67;98432.27;106573;1271;22731;-91
2022/06/25 04:41:19;;;;;;;6.20;2.10;;;;;;;19.55;58.78;98434.19;106434;1271;22545;-87
2022/06/25 04:44:19;;;;;;;5.70;2.00;;;;;;;19.61;58.70;98434.95;106199;1272;24214;-87
2022/06/25 04:46:56;;;;;;;6.10;1.70;;;;;;;19.64;58.83;98439.82;106504;1271;26563;-87
2022/06/25 04:49:54;;;;;;;7.10;1.90;;;;;;;19.65;58.84;98445.09;106214;1271;25349;-87
2022/06/25 04:52:25;;;;;;;6.10;2.00;;;;;;;19.67;58.95;98451.73;106126;1274;22700;-88
2022/06/25 04:55:04;;;;;;;6.80;1.80;;;;;;;19.70;58.89;98456.93;106477;1271;22556;-86
2022/06/25 04:57:43;;;;;;;7.30;2.10;;;;;;;19.77;59.04;98462.02;106651;1271;22688;-89
2022/06/25 05:00:50;;;;;;;8.00;2.40;;;;;;;19.84;58.88;98462.98;105979;1271;22669;-87
2022/06/25 05:03:33;;;;;;;6.20;2.00;;;;;;;19.90;58.91;98464.20;106428;1271;22758;-86
2022/06/25 05:06:34;;;;;;;8.50;2.50;;;;;;;20.02;59.25;98464.59;106234;1271;22528;-87
2022/06/25 05:09:09;;;;;;;10.50;2.70;;;;;;;20.13;59.05;98469.18;106582;1271;22669;-87
2022/06/25 05:11:44;;;;;;;6.70;2.30;;;;;;;20.24;58.94;98467.64;106356;1271;23964;-88
2022/06/25 05:14:26;;;;;;;7.30;2.40;;;;;;;20.33;58.86;98469.48;106297;1271;25251;-86
2022/06/25 05:17:04;;;;;;;7.10;2.10;;;;;;;20.44;58.97;98466.81;106552;1271;25475;-85
2022/06/25 05:19:44;;;;;;;5.70;2.50;;;;;;;20.55;58.98;98468.56;106358;1271;22562;-85
2022/06/25 05:22:13;;;;;;;8.20;2.60;;;;;;;20.66;58.86;98468.26;106487;1273;22562;-86
2022/06/25 05:24:52;;;;;;;7.60;2.50;;;;;;;20.84;58.98;98471.81;106466;1271;25409;-87
2022/06/25 05:27:31;;;;;;;6.60;2.80;;;;;;;21.27;59.17;98472.69;106440;1271;25301;-87
2022/06/25 05:30:04;;;;;;;8.50;2.40;;;;;;;21.65;58.89;98468.70;106327;1271;24212;-88
2022/06/25 05:32:45;;;;;;;10.00;2.80;;;;;;;21.96;58.59;98477.19;106201;1271;25291;-86
2022/06/25 05:35:23;;;;;;;7.80;2.40;;;;;;;22.25;58.48;98475.88;106254;1271;22560;-84
2022/06/25 05:37:58;;;;;;;8.20;1.90;;;;;;;22.48;58.09;98472.30;106514;1271;25448;-89
2022/06/25 05:40:33;;;;;;;5.30;2.00;;;;;;;22.63;58.24;98470.02;106438;1271;22534;-86
2022/06/25 05:43:04;;;;;;;6.40;2.00;;;;;;;22.58;58.06;98466.60;106459;1272;25238;-85
2022/06/25 05:45:45;;;;;;;5.90;1.90;;;;;;;22.67;58.12;98475.88;106351;1271;22531;-86
2022/06/25 05:48:17;;;;;;;6.40;1.90;;;;;;;22.84;58.07;98477.25;106476;1271;23037;-85
2022/06/25 05:50:52;;;;;;;6.50;1.80;;;;;;;23.02;57.89;98477.64;106304;1271;22561;-90
2022/06/25 05:53:26;;;;;;;6.10;1.70;;;;;;;23.15;57.66;98478.56;106183;1271;24267;-88
2022/06/25 05:56:06;;;;;;;7.30;2.00;;;;;;;23.24;57.57;98476.73;106154;1271;24389;-89
2022/06/25 05:58:45;;;;;;;5.00;1.80;;;;;;;23.35;57.73;98474.89;106140;1271;24253;-85
2022/06/25 06:01:25;;;;;;;5.30;1.60;;;;;;;23.49;57.69;98475.61;106448;1271;23003;-87
2022/06/25 06:04:04;;;;;;;4.20;1.60;;;;;;;23.67;57.64;98478.95;106394;1272;24268;-88
2022/06/25 06:06:41;;;;;;;6.60;1.80;;;;;;;23.89;57.85;98475.02;106271;1274;22705;-85
2022/06/25 06:09:30;;;;;;;5.40;1.70;;;;;;;24.09;57.61;98480.00;106395;1274;25716;-85
2022/06/25 06:12:04;;;;;;;4.60;1.70;;;;;;;24.23;57.38;98480.52;106243;1273;25327;-86
2022/06/25 06:14:37;;;;;;;4.40;1.50;;;;;;;24.41;57.36;98486.06;106181;1272;25323;-87
2022/06/25 06:17:21;;;;;;;4.70;1.70;;;;;;;24.54;57.04;98494.10;106484;1271;25280;-86
2022/06/25 06:20:03;;;;;;;4.50;1.60;;;;;;;24.61;57.15;98495.39;106337;1272;24275;-89
2022/06/25 06:22:37;;;;;;;6.10;1.80;;;;;;;24.76;57.09;98499.38;106464;1274;22566;-86
2022/06/25 06:25:13;;;;;;;5.00;1.50;;;;;;;24.95;57.21;98497.08;106429;1271;22530;-85
2022/06/25 06:28:04;;;;;;;6.00;1.80;;;;;;;25.13;56.81;98500.36;106452;1272;25326;-85
2022/06/25 06:30:52;;;;;;;5.70;1.70;;;;;;;25.28;56.73;98504.10;106444;1271;22558;-85
2022/06/25 06:33:36;;;;;;;4.20;1.20;;;;;;;25.41;56.59;98500.42;106395;1271;25241;-84
2022/06/25 06:36:27;;;;;;;5.30;1.00;;;;;;;25.51;56.29;98504.02;106234;1272;25361;-85
2022/06/25 06:39:04;;;;;;;3.90;1.00;;;;;;;25.51;55.97;98503.09;106229;1271;25558;-84
2022/06/25 06:41:54;;;;;;;4.00;1.10;;;;;;;25.52;55.90;98507.34;106222;1274;24237;-85
2022/06/25 06:45:13;;;;;;;;;;;;;;;;;;;;;
2022/06/25 06:48:45;;;;;;;3.10;1.00;;;;;;;25.63;55.82;98512.69;106308;1271;22540;-86
2022/06/25 06:52:04;;;;;;;;;;;;;;;;;;;;;
2022/06/25 06:55:23;;;;;;;;;;;;;;;;;;;;;
2022/06/25 06:58:41;;;;;;;;;;;;;;;;;;;;;
2022/06/25 07:02:16;;;;;;;;;;;;;;;;;;;;;
2022/06/25 07:05:39;;;;;;;1.70;0.80;;;;;;;25.70;54.96;98509.73;106438;1273;23274;-87
2022/06/25 07:08:36;;;;;;;4.00;0.90;;;;;;;25.83;54.85;98504.96;106326;1271;22519;-86
2022/06/25 07:11:51;;;;;;;4.40;0.80;;;;;;;25.98;54.79;98499.65;106450;1273;22587;-89
2022/06/25 07:15:05;;;;;;;;;;;;;;;;;;;;;
2022/06/25 07:17:48;;;;;;;2.90;0.90;;;;;;;26.20;54.28;98506.93;106350;1273;24409;-88
2022/06/25 07:20:36;;;;;;;1.90;0.60;;;;;;;26.26;54.37;98505.52;106535;1271;22534;-88
2022/06/25 07:23:37;;;;;;;2.60;1.00;;;;;;;26.35;54.18;98503.80;106561;1271;24374;-84
2022/06/25 07:26:38;;;;;;;4.70;1.00;;;;;;;26.44;53.79;98497.13;107180;1272;22586;-85
2022/06/25 07:29:28;;;;;;;5.50;1.30;;;;;;;26.43;53.81;98495.88;106625;1271;25338;-88
2022/06/25 07:32:12;;;;;;;2.90;0.80;;;;;;;26.50;53.85;98498.13;106412;1273;25396;-85
2022/06/25 07:35:05;;;;;;;3.40;0.60;;;;;;;26.64;53.78;98496.54;106891;1271;22745;-87
2022/06/25 07:37:43;;;;;;;3.30;0.80;;;;;;;26.76;53.78;98493.08;106449;1271;24328;-85
2022/06/25 07:40:41;;;;;;;3.80;0.80;;;;;;;26.92;53.56;98488.00;106331;1273;25035;-87
2022/06/25 07:43:16;;;;;;;4.30;1.30;;;;;;;27.11;53.73;98492.31;106561;1272;23946;-88
2022/06/25 07:46:16;;;;;;;3.30;0.80;;;;;;;27.24;53.61;98489.90;106557;1272;22739;-90
2022/06/25 07:48:58;;;;;;;2.50;0.70;;;;;;;27.37;53.18;98495.17;106549;1271;26584;-88
2022/06/25 07:54:36;;;;;;;4.60;1.10;;;;;;;27.47;53.34;98494.67;106739;1271;25352;-92
2022/06/25 07:57:36;;;;;;;;;;;;;;;;;;;;;
2022/06/25 08:00:30;;;;;;;;;;;;;;;;;;;;;
2022/06/25 08:03:32;;;;;;;;;;;;;;;;;;;;;
2022/06/25 08:06:15;;;;;;;5.70;1.00;;;;;;;27.31;52.88;98507.73;106249;1273;22660;-89
2022/06/25 08:08:59;;;;;;;3.20;1.20;;;;;;;27.56;52.83;98511.50;106963;1273;22541;-91
2022/06/25 08:11:34;;;;;;;2.50;0.90;;;;;;;27.55;51.97;98522.11;108555;1273;22535;-90
2022/06/25 08:14:24;;;;;;;3.70;1.30;;;;;;;27.39;52.11;98518.48;106525;1273;22572;-90
2022/06/25 08:17:35;;;;;;;4.10;1.10;;;;;;;27.36;52.09;98522.42;107357;1273;22587;-87
2022/06/25 08:20:45;;;;;;;4.30;1.10;;;;;;;27.49;52.34;98533.89;106372;1273;22550;-86
2022/06/25 08:23:40;;;;;;;4.00;1.20;;;;;;;27.71;52.18;98537.64;106186;1273;22608;-87
2022/06/25 08:26:20;;;;;;;2.30;1.00;;;;;;;28.04;52.45;98532.63;106055;1274;22560;-85
2022/06/25 08:29:23;;;;;;;3.60;1.20;;;;;;;28.41;52.53;98529.39;106506;1274;23027;-87
2022/06/25 08:31:50;;;;;;;2.00;1.00;;;;;;;28.78;51.98;98530.14;106154;1273;22566;-88
2022/06/25 08:34:37;;;;;;;4.40;1.10;;;;;;;29.01;51.72;98528.73;106120;1276;26070;-88
2022/06/25 08:37:19;;;;;;;5.30;1.20;;;;;;;29.20;51.21;98530.97;106215;1276;22540;-88
2022/06/25 08:40:04;;;;;;;;;;;;;;;;;;;;;
2022/06/25 08:42:36;;;;;;;4.80;1.00;;;;;;;29.11;50.56;98529.08;107592;1274;24120;-90
2022/06/25 08:45:16;;;;;;;2.90;1.20;;;;;;;28.94;50.57;98531.23;107792;1273;22772;-90
2022/06/25 08:47:53;;;;;;;3.60;1.10;;;;;;;28.95;50.87;98532.19;106630;1273;22556;-89
2022/06/25 08:50:34;;;;;;;;;;;;;;;;;;;;;
2022/06/25 08:53:16;;;;;;;4.10;1.10;;;;;;;28.90;49.65;98530.53;107321;1273;24200;-91
2022/06/25 08:55:45;;;;;;;6.60;1.30;;;;;;;28.72;50.50;98531.71;106628;1276;22551;-87
2022/06/25 08:58:18;;;;;;;5.00;1.20;;;;;;;29.05;50.32;98532.08;106328;1274;23926;-85
2022/06/25 09:00:54;;;;;;;4.10;1.30;;;;;;;29.35;50.18;98530.94;105904;1277;25358;-86
2022/06/25 09:03:47;;;;;;;;;;;;;;;;;;;;;
2022/06/25 09:06:47;;;;;;;3.80;1.20;;;;;;;29.62;49.46;98534.73;107037;1276;24193;-91
2022/06/25 09:09:27;;;;;;;3.50;1.20;;;;;;;29.76;49.93;98536.23;106247;1275;24919;-87
2022/06/25 09:12:07;;;;;;;4.70;1.30;;;;;;;30.01;49.36;98532.64;106411;1277;26545;-91
2022/06/25 09:14:38;;;;;;;4.50;1.20;;;;;;;29.94;49.17;98537.14;106194;1276;26541;-89
2022/06/25 09:17:18;;;;;;;3.80;1.10;;;;;;;29.74;49.33;98546.36;105992;1275;23153;-86
2022/06/25 09:19:57;;;;;;;2.70;1.20;;;;;;;29.49;49.20;98544.32;106161;1274;22559;-90
2022/06/25 09:22:31;;;;;;;4.10;1.30;;;;;;;29.40;49.38;98544.63;106471;1274;22660;-91
2022/06/25 09:25:21;;;;;;;4.30;1.30;;;;;;;29.34;49.35;98545.17;105970;1276;23940;-90
2022/06/25 09:27:54;;;;;;;3.20;1.50;;;;;;;29.43;49.57;98541.44;106179;1274;24328;-86
2022/06/25 09:30:32;;;;;;;4.40;1.10;;;;;;;29.76;49.29;98543.48;106059;1274;22537;-87
2022/06/25 09:33:04;;;;;;;5.50;1.20;;;;;;;29.85;49.01;98547.13;106032;1276;23197;-89
2022/06/25 09:35:48;;;;;;;4.90;1.20;;;;;;;29.92;49.22;98547.67;106168;1274;25487;-88
2022/06/25 09:38:19;;;;;;;4.90;1.20;;;;;;;30.27;49.07;98545.72;106218;1274;22563;-89
2022/06/25 09:41:57;;;;;;;;;;;;;;;;;;;;;
2022/06/25 09:44:39;;;;;;;2.40;1.00;;;;;;;30.16;47.65;98552.08;106280;1281;22724;-89
2022/06/25 09:47:09;;;;;;;2.90;1.20;;;;;;;29.95;48.42;98553.83;105541;1282;22516;-88
2022/06/25 09:50:03;;;;;;;6.40;1.00;;;;;;;29.85;48.36;98555.92;105607;1282;23169;-86
2022/06/25 09:53:05;;;;;;;4.70;1.10;;;;;;;29.67;48.05;98560.32;106150;1281;22647;-88
2022/06/25 09:55:43;;;;;;;3.70;1.00;;;;;;;29.24;47.46;98559.80;108320;1261;22765;-89
2022/06/25 09:58:35;;;;;;;2.70;1.00;;;;;;;28.73;47.69;98564.71;107692;1274;24245;-88
2022/06/25 10:01:17;;;;;;;4.70;1.20;;;;;;;28.68;48.40;98567.73;105882;1276;25563;-88
2022/06/25 10:04:12;;;;;;;4.10;1.30;;;;;;;28.88;48.36;98572.20;105803;1276;24411;-89
2022/06/25 10:07:19;;;;;;;3.40;1.10;;;;;;;29.09;48.27;98570.49;106235;1277;24178;-90
2022/06/25 10:10:30;;;;;;;;;;;;;;;;;;;;;
2022/06/25 10:13:15;;;;;;;5.00;1.20;;;;;;;29.20;47.30;98568.91;107147;1274;22704;-91
2022/06/25 10:15:55;;;;;;;5.10;1.00;;;;;;;29.28;47.85;98563.59;106222;1274;25355;-90
2022/06/25 10:18:45;;;;;;;4.30;1.30;;;;;;;29.60;47.37;98556.89;107980;1273;22573;-89
2022/06/25 10:21:35;;;;;;;3.40;1.00;;;;;;;29.47;47.31;98559.34;106595;1274;22576;-92
2022/06/25 10:27:26;;;;;;;2.40;1.00;;;;;;;29.20;47.25;98559.56;107622;1276;22565;-94
2022/06/25 10:30:49;;;;;;;5.30;1.20;;;;;;;29.13;46.98;98558.75;107096;1279;22760;-93
2022/06/25 10:37:09;;;;;;;3.50;1.00;;;;;;;29.62;46.95;98554.04;107222;1274;25382;-90
2022/06/25 10:39:52;;;;;;;3.20;1.10;;;;;;;29.42;47.13;98560.25;105875;1276;22548;-89
2022/06/25 10:43:45;;;;;;;;;;;;;;;;;;;;;
2022/06/25 10:48:01;;;;;;;9.70;5.90;;;;;;;29.74;46.88;98562.70;104474;1293;24644;-87
2022/06/25 10:50:36;;;;;;;16.60;12.30;;;;;;;29.62;46.91;98559.67;104113;1300;26838;-88
2022/06/25 10:54:14;;;;;;;;;;;;;;;;;;;;;
2022/06/25 10:57:35;;;;;;;3.70;1.50;;;;;;;29.08;46.66;98563.98;103601;1300;24320;-90
2022/06/25 11:00:22;;;;;;;5.50;1.50;;;;;;;28.71;46.66;98565.22;103590;1302;22808;-88
2022/06/25 11:03:46;;;;;;;;;;;;;;;;;;;;;
2022/06/25 11:07:04;;;;;;;;;;;;;;;;;;;;;
2022/06/25 11:10:34;;;;;;;2.80;1.30;;;;;;;28.40;46.72;98564.58;103922;1302;25490;-91
2022/06/25 11:13:56;;;;;;;;;;;;;;;;;;;;;
2022/06/25 11:17:04;;;;;;;4.00;1.40;;;;;;;28.42;47.02;98562.02;103004;1308;22673;-90
2022/06/25 11:20:31;;;;;;;;;;;;;;;;;;;;;
2022/06/25 11:23:35;;;;;;;4.30;1.40;;;;;;;29.48;46.78;98561.09;102967;1309;545715;-87
2022/06/25 11:29:03;;;;;;;3.00;1.20;;;;;;;29.40;46.58;98563.98;105480;1284;24235;-86
2022/06/25 11:31:41;;;;;;;3.40;1.30;;;;;;;29.53;46.58;98564.99;105180;1284;22676;-88
2022/06/25 11:35:17;;;;;;;3.90;1.40;;;;;;;29.80;46.39;98565.90;105358;1284;22989;-91
2022/06/25 11:37:30;;;;;;;3.70;1.10;;;;;;;29.91;46.23;98561.26;105096;1284;344243;-86
2022/06/25 11:40:21;;;;;;;3.60;1.30;;;;;;;30.18;46.47;98556.52;106318;1274;22553;-88
2022/06/25 11:43:07;;;;;;;3.70;1.10;;;;;;;30.38;46.02;98554.45;106197;1275;22550;-87
2022/06/25 11:45:56;;;;;;;3.10;1.20;;;;;;;30.36;45.57;98553.64;106442;1274;25231;-90
2022/06/25 11:48:34;;;;;;;4.10;1.60;;;;;;;30.34;45.80;98553.02;106457;1274;25418;-86
2022/06/25 11:51:47;;;;;;;12.40;7.20;;;;;;;30.38;45.56;98550.64;106582;1274;25559;-89
2022/06/25 11:54:25;;;;;;;3.90;1.60;;;;;;;30.39;45.71;98560.63;106125;1274;22652;-85
2022/06/25 11:57:01;;;;;;;4.70;1.40;;;;;;;30.79;46.04;98559.46;106307;1274;22607;-87
2022/06/25 11:59:36;;;;;;;4.60;1.40;;;;;;;31.21;45.51;98564.17;106532;1274;22676;-88
2022/06/25 12:02:12;;;;;;;2.60;1.20;;;;;;;31.52;45.57;98563.42;106145;1274;25462;-87
2022/06/25 12:05:06;;;;;;;3.50;1.30;;;;;;;31.62;45.27;98556.74;106217;1274;22579;-86
2022/06/25 12:07:45;;;;;;;4.80;1.30;;;;;;;31.84;44.98;98557.67;106544;1274;22583;-87
2022/06/25 12:10:26;;;;;;;4.10;1.40;;;;;;;32.06;45.06;98560.48;106065;1274;22646;-87
2022/06/25 12:12:57;;;;;;;4.30;1.70;;;;;;;32.31;44.97;98559.12;106084;1274;25311;-85
2022/06/25 12:15:38;;;;;;;4.80;1.50;;;;;;;32.51;44.85;98552.60;106094;1274;22541;-85
2022/06/25 12:18:13;;;;;;;4.50;1.40;;;;;;;32.66;44.18;98553.88;106350;1274;25294;-84
2022/06/25 12:21:01;;;;;;;5.70;1.70;;;;;;;32.57;44.05;98549.67;106683;1273;22701;-86
2022/06/25 12:23:49;;;;;;;5.00;1.40;;;;;;;32.47;44.43;98546.89;106422;1274;24193;-83
2022/06/25 12:26:53;;;;;;;4.10;1.30;;;;;;;32.52;44.12;98545.98;106398;1274;25579;-84
2022/06/25 12:29:25;;;;;;;3.10;1.30;;;;;;;32.30;43.92;98549.15;106240;1274;25539;-85
2022/06/25 12:31:54;;;;;;;4.20;1.40;;;;;;;31.85;43.66;98551.83;106418;1274;22527;-87
2022/06/25 12:34:25;;;;;;;4.30;1.30;;;;;;;31.39;43.81;98560.13;106282;1274;22531;-85
2022/06/25 12:36:56;;;;;;;3.90;1.40;;;;;;;31.07;43.96;98562.65;106133;1274;25244;-84
2022/06/25 12:39:37;;;;;;;5.10;2.00;;;;;;;30.85;44.01;98557.61;106271;1274;22537;-88
2022/06/25 12:42:13;;;;;;;5.40;2.00;;;;;;;30.83;44.28;98557.37;106512;1274;22563;-84
2022/06/25 12:44:49;;;;;;;4.50;1.70;;;;;;;30.95;43.56;98559.52;106322;1274;24364;-85
2022/06/25 12:47:21;;;;;;;5.10;1.30;;;;;;;30.45;43.13;98556.82;106184;1274;22551;-87
2022/06/25 12:49:56;;;;;;;5.20;1.90;;;;;;;29.92;43.66;98568.12;106103;1274;22630;-83
2022/06/25 12:52:43;;;;;;;4.90;2.10;;;;;;;29.76;44.19;98559.73;106353;1274;22553;-85
2022/06/25 12:55:31;;;;;;;6.00;2.00;;;;;;;29.81;44.20;98555.19;106170;1274;24418;-84
2022/06/25 12:58:08;;;;;;;5.90;2.70;;;;;;;30.17;44.13;98553.65;106231;1274;24209;-84
2022/06/25 13:00:52;;;;;;;3.50;1.70;;;;;;;30.54;44.11;98547.98;106103;1274;23944;-85
2022/06/25 13:03:24;;;;;;;3.50;1.60;;;;;;;30.90;43.85;98556.25;106289;1274;24380;-83
2022/06/25 13:05:54;;;;;;;5.10;1.50;;;;;;;31.15;43.71;98559.35;106152;1274;22713;-85
2022/06/25 13:08:38;;;;;;;3.80;1.60;;;;;;;31.24;43.53;98559.61;106754;1274;22643;-85
2022/06/25 13:11:27;;;;;;;5.60;2.20;;;;;;;31.36;43.80;98562.65;106306;1274;26486;-84
2022/06/25 13:13:57;;;;;;;7.10;2.50;;;;;;;31.55;43.61;98563.58;106374;1274;22770;-86
2022/06/25 13:16:30;;;;;;;6.00;2.60;;;;;;;31.56;43.43;98559.15;106165;1272;22474;-83
2022/06/25 13:19:13;;;;;;;5.90;2.40;;;;;;;31.28;43.37;98561.59;106164;1274;25260;-84
2022/06/25 13:21:47;;;;;;;4.20;1.90;;;;;;;31.02;43.34;98560.16;106143;1274;25468;-83
2022/06/25 13:24:24;;;;;;;6.80;2.10;;;;;;;30.80;43.38;98556.55;106409;1274;24156;-85
2022/06/25 13:27:36;;;;;;;5.90;2.30;;;;;;;30.70;43.52;98555.09;106288;1274;22537;-83
2022/06/25 13:30:10;;;;;;;6.90;2.70;;;;;;;30.69;43.42;98553.30;106292;1274;22743;-85
2022/06/25 13:32:54;;;;;;;;;;;;;;;;;;;;;
2022/06/25 13:35:40;;;;;;;7.00;2.50;;;;;;;30.62;43.61;98558.35;106266;1274;25273;-83